createdAt,value
2018-08-20T00:04:45.000Z,25.77
2018-08-20T00:14:45.000Z,25.75
2018-08-20T00:24:45.000Z,25.71
2018-08-20T00:34:45.000Z,25.67
2018-08-20T00:44:45.000Z,25.65
2018-08-20T00:54:45.000Z,25.63
2018-08-20T01:04:45.000Z,25.6
2018-08-20T01:14:45.000Z,25.57
2018-08-20T01:24:45.000Z,25.58
2018-08-20T01:34:45.000Z,25.55
2018-08-20T01:44:45.000Z,25.54
2018-08-20T01:54:45.000Z,25.53
2018-08-20T02:04:45.000Z,25.5
2018-08-20T02:14:45.000Z,25.48
2018-08-20T02:24:45.000Z,25.45
2018-08-20T02:34:46.000Z,25.43
2018-08-20T02:44:46.000Z,25.41
2018-08-20T02:54:46.000Z,25.39
2018-08-20T03:04:46.000Z,25.36
2018-08-20T03:14:46.000Z,25.34
2018-08-20T03:24:46.000Z,25.31
2018-08-20T03:34:46.000Z,25.3
2018-08-20T03:44:46.000Z,25.27
2018-08-20T03:54:46.000Z,25.26
2018-08-20T04:04:46.000Z,25.24
2018-08-20T04:14:46.000Z,25.22
2018-08-20T04:24:46.000Z,25.2
2018-08-20T04:34:46.000Z,25.17
2018-08-20T04:44:46.000Z,25.16
2018-08-20T04:54:46.000Z,25.15
2018-08-20T05:04:46.000Z,25.13
2018-08-20T05:14:46.000Z,25.11
2018-08-20T05:24:46.000Z,25.11
2018-08-20T05:34:46.000Z,25.09
2018-08-20T05:44:46.000Z,25.08
2018-08-20T05:54:46.000Z,25.07
2018-08-20T06:04:46.000Z,25.07
2018-08-20T06:14:46.000Z,25.08
2018-08-20T06:24:46.000Z,25.05
2018-08-20T06:34:46.000Z,25.06
2018-08-20T06:44:46.000Z,25.1
2018-08-20T06:54:46.000Z,25.14
2018-08-20T07:04:46.000Z,25.16
2018-08-20T07:14:46.000Z,25.17
2018-08-20T07:24:46.000Z,25.17
2018-08-20T07:34:46.000Z,25.19
2018-08-20T07:44:46.000Z,25.2
2018-08-20T07:54:46.000Z,25.24
2018-08-20T08:04:47.000Z,25.26
2018-08-20T08:14:46.000Z,25.29
2018-08-20T08:24:46.000Z,25.27
2018-08-20T08:34:46.000Z,25.28
2018-08-20T08:44:46.000Z,25.32
2018-08-20T08:54:46.000Z,25.31
2018-08-20T09:04:46.000Z,25.38
2018-08-20T09:14:46.000Z,25.38
2018-08-20T09:24:46.000Z,25.39
2018-08-20T09:34:46.000Z,25.44
2018-08-20T09:44:46.000Z,25.46
2018-08-20T09:54:46.000Z,25.49
2018-08-20T10:04:46.000Z,25.42
2018-08-20T10:14:46.000Z,25.38
2018-08-20T10:24:46.000Z,25.42
2018-08-20T10:34:46.000Z,25.38
2018-08-20T10:44:47.000Z,25.4
2018-08-20T10:54:47.000Z,25.4
2018-08-20T11:04:47.000Z,25.4
2018-08-20T11:14:47.000Z,25.44
2018-08-20T11:24:47.000Z,25.45
2018-08-20T11:34:47.000Z,25.47
2018-08-20T11:44:47.000Z,25.5
2018-08-20T11:54:47.000Z,25.48
2018-08-20T12:04:47.000Z,25.51
2018-08-20T12:14:47.000Z,25.57
2018-08-20T12:24:47.000Z,25.62
2018-08-20T12:34:47.000Z,25.79
2018-08-20T12:44:47.000Z,25.77
2018-08-20T12:54:47.000Z,25.79
2018-08-20T13:04:47.000Z,25.82
2018-08-20T13:14:47.000Z,25.89
2018-08-20T13:24:47.000Z,25.99
2018-08-20T13:34:47.000Z,25.94
2018-08-20T13:44:47.000Z,25.89
2018-08-20T13:54:47.000Z,25.91
2018-08-20T14:04:47.000Z,25.89
2018-08-20T14:14:47.000Z,25.87
2018-08-20T14:24:47.000Z,25.86
2018-08-20T14:34:47.000Z,25.97
2018-08-20T14:44:47.000Z,25.96
2018-08-20T14:54:47.000Z,25.98
2018-08-20T15:04:47.000Z,26.03
2018-08-20T15:14:47.000Z,26.02
2018-08-20T15:24:47.000Z,26
2018-08-20T15:34:47.000Z,26
2018-08-20T15:44:47.000Z,25.96
2018-08-20T15:54:47.000Z,25.94
2018-08-20T16:04:47.000Z,26
2018-08-20T16:14:47.000Z,26.01
2018-08-20T16:24:47.000Z,26.04
2018-08-20T16:34:47.000Z,26.05
2018-08-20T16:44:47.000Z,26.04
2018-08-20T16:54:47.000Z,26
2018-08-20T17:04:47.000Z,25.99
2018-08-20T17:24:47.000Z,26
2018-08-20T17:34:47.000Z,25.97
2018-08-20T17:44:47.000Z,25.96
2018-08-20T17:54:47.000Z,25.92
2018-08-20T18:04:47.000Z,25.9
2018-08-20T18:14:47.000Z,25.86
2018-08-20T18:24:47.000Z,25.85
2018-08-20T18:34:47.000Z,25.83
2018-08-20T18:44:47.000Z,25.8
2018-08-20T18:54:48.000Z,25.79
2018-08-20T19:04:48.000Z,25.77
2018-08-20T19:14:48.000Z,25.74
2018-08-20T19:24:48.000Z,25.77
2018-08-20T19:34:48.000Z,25.77
2018-08-20T19:44:48.000Z,25.77
2018-08-20T19:54:50.000Z,25.75
2018-08-20T20:04:48.000Z,25.73
2018-08-20T20:14:48.000Z,25.71
2018-08-20T20:24:48.000Z,25.68
2018-08-20T20:34:48.000Z,25.66
2018-08-20T20:44:48.000Z,25.63
2018-08-20T20:54:48.000Z,25.62
2018-08-20T21:04:48.000Z,25.62
2018-08-20T21:14:48.000Z,25.61
2018-08-20T21:24:48.000Z,25.59
2018-08-20T21:34:48.000Z,25.57
2018-08-20T21:54:48.000Z,25.52
2018-08-20T22:04:48.000Z,25.49
2018-08-20T22:14:49.000Z,25.49
2018-08-20T22:24:48.000Z,25.47
2018-08-20T22:34:48.000Z,25.44
2018-08-20T22:44:48.000Z,25.41
2018-08-20T22:54:49.000Z,25.39
2018-08-20T23:04:48.000Z,25.37
2018-08-20T23:14:48.000Z,25.36
2018-08-20T23:24:48.000Z,25.33
2018-08-20T23:34:48.000Z,25.32
2018-08-20T23:44:49.000Z,25.3
2018-08-20T23:54:48.000Z,25.29
